Time;durP1;ratioP1;P1;durP2;ratioP2;P2;SDS_P1;SDS_P2;PMS_P1;PMS_P2;Temp;Humidity;BMP_temperature;BMP_pressure;BME280_temperature;BME280_humidity;BME280_pressure;Samples;Min_cycle;Max_cycle;Signal;HPM_P1;HPM_P2
2023/05/25 00:01:42;;;;;;;9.70;3.57;;;;;;;11.05;100.00;102977.88;5099200;28;20412;-69
2023/05/25 00:04:09;;;;;;;13.10;4.37;;;;;;;10.30;100.00;102845.59;5099705;28;20213;-69
2023/05/25 00:06:39;;;;;;;13.37;4.30;;;;;;;11.29;100.00;102991.59;5100037;28;20424;-68
2023/05/25 00:09:05;;;;;;;11.60;4.13;;;;;;;11.32;100.00;102980.53;5099334;28;20460;-69
2023/05/25 00:11:30;;;;;;;14.43;4.50;;;;;;;11.23;100.00;102989.50;5100710;28;20798;-69
2023/05/25 00:13:56;;;;;;;6.80;3.87;;;;;;;10.96;100.00;102925.06;5099849;28;20675;-68
2023/05/25 00:16:21;;;;;;;13.70;4.10;;;;;;;11.03;100.00;102929.69;5099161;28;20413;-69
2023/05/25 00:18:47;;;;;;;8.60;3.70;;;;;;;11.15;100.00;102951.81;5099105;28;20170;-69
2023/05/25 00:21:14;;;;;;;9.20;4.03;;;;;;;10.88;100.00;102939.25;5099567;28;20179;-69
2023/05/25 00:23:40;;;;;;;6.93;3.37;;;;;;;10.67;100.00;102903.75;5094697;28;20468;-69
2023/05/25 00:26:05;;;;;;;13.33;3.90;;;;;;;10.64;100.00;102907.56;5097947;28;20431;-69
2023/05/25 00:28:31;;;;;;;9.33;4.27;;;;;;;11.18;100.00;102980.22;5093577;28;20572;-69
2023/05/25 00:30:56;;;;;;;7.30;3.70;;;;;;;11.08;100.00;102977.59;5080454;28;20304;-69
2023/05/25 00:33:21;;;;;;;11.97;4.37;;;;;;;10.80;100.00;102936.47;5098026;28;20220;-68
2023/05/25 00:35:47;;;;;;;16.07;4.83;;;;;;;10.63;100.00;102906.72;5098855;28;20181;-68
2023/05/25 00:38:13;;;;;;;7.97;4.30;;;;;;;10.45;100.00;102891.59;5099687;28;20182;-69
2023/05/25 00:40:40;;;;;;;8.90;3.70;;;;;;;10.89;100.00;102962.41;5098140;28;20243;-68
2023/05/25 00:43:07;;;;;;;11.83;3.83;;;;;;;11.00;100.00;102972.13;5099170;28;20446;-69
2023/05/25 00:45:32;;;;;;;9.67;3.90;;;;;;;10.96;100.00;102973.41;5096729;28;20504;-69
2023/05/25 00:47:59;;;;;;;8.87;4.00;;;;;;;10.82;100.00;102958.66;5100123;28;20423;-69
2023/05/25 00:50:40;;;;;;;9.23;3.80;;;;;;;10.27;100.00;102867.34;5098304;28;20686;-69
2023/05/25 00:53:07;;;;;;;8.80;3.97;;;;;;;10.86;100.00;102978.81;5099655;28;20439;-68
2023/05/25 00:55:39;;;;;;;8.40;3.33;;;;;;;10.83;100.00;102979.97;5098297;28;20424;-69
2023/05/25 00:58:07;;;;;;;9.90;3.53;;;;;;;10.72;100.00;102988.19;5099006;28;20489;-69
2023/05/25 01:00:37;;;;;;;11.10;4.07;;;;;;;10.88;100.00;102995.63;5098766;28;20425;-69
2023/05/25 01:03:10;;;;;;;9.93;4.30;;;;;;;10.69;100.00;102990.34;5097736;28;20936;-69
2023/05/25 01:05:37;;;;;;;8.33;3.53;;;;;;;10.02;100.00;102895.63;5080653;28;20423;-69
2023/05/25 01:08:05;;;;;;;11.40;4.20;;;;;;;10.76;100.00;103004.84;5097767;28;20435;-69
2023/05/25 01:10:36;;;;;;;9.77;3.97;;;;;;;10.71;100.00;103004.47;5097705;28;20502;-69
2023/05/25 01:13:03;;;;;;;11.87;4.27;;;;;;;10.41;100.00;102944.66;5098066;28;20450;-69
2023/05/25 01:15:29;;;;;;;9.60;3.63;;;;;;;10.70;100.00;102987.50;5094962;28;20474;-69
2023/05/25 01:17:58;;;;;;;7.77;3.53;;;;;;;10.56;100.00;102937.00;5098348;28;20789;-69
2023/05/25 01:20:29;;;;;;;9.83;4.00;;;;;;;10.74;100.00;102980.00;5097610;28;20508;-69
2023/05/25 01:22:54;;;;;;;9.50;3.30;;;;;;;10.74;100.00;102991.59;5098723;28;20917;-69
2023/05/25 01:25:44;;;;;;;10.10;4.47;;;;;;;10.62;100.00;102998.97;5098691;28;20511;-69
2023/05/25 01:28:31;;;;;;;7.90;4.10;;;;;;;10.46;100.00;102979.97;5098653;28;20551;-69
2023/05/25 01:30:58;;;;;;;8.93;3.63;;;;;;;10.50;100.00;102975.13;5099532;28;20440;-69
2023/05/25 01:33:25;;;;;;;12.87;4.00;;;;;;;9.70;100.00;102844.06;5095520;28;20459;-69
2023/05/25 01:35:51;;;;;;;13.80;4.33;;;;;;;10.47;100.00;102986.16;5076765;28;20443;-69
2023/05/25 01:38:17;;;;;;;9.33;3.70;;;;;;;10.05;100.00;102914.13;5091615;28;20451;-69
2023/05/25 01:40:43;;;;;;;9.73;3.50;;;;;;;10.43;100.00;102977.56;5089969;28;20439;-69
2023/05/25 01:43:08;;;;;;;8.63;3.20;;;;;;;9.94;100.00;102910.59;5096732;28;20556;-69
2023/05/25 01:45:34;;;;;;;11.73;4.57;;;;;;;10.20;100.00;102942.16;5078130;28;20636;-68
2023/05/25 01:48:29;;;;;;;7.43;3.90;;;;;;;10.49;100.00;102997.59;5091016;28;20248;-68
2023/05/25 01:51:06;;;;;;;8.40;3.63;;;;;;;10.36;100.00;102971.94;5095685;28;20466;-68
2023/05/25 01:53:40;;;;;;;8.83;3.80;;;;;;;10.59;100.00;102995.75;5096393;28;20540;-68
2023/05/25 01:56:07;;;;;;;8.17;3.43;;;;;;;10.46;100.00;102997.91;5093596;28;20445;-69
2023/05/25 01:58:41;;;;;;;11.07;4.30;;;;;;;10.51;100.00;103012.56;5092499;28;20865;-68
2023/05/25 02:01:08;;;;;;;7.37;4.20;;;;;;;10.34;100.00;102973.06;5068279;28;20936;-68
2023/05/25 02:03:36;;;;;;;8.43;3.63;;;;;;;10.43;100.00;103007.06;5092277;28;20463;-68
2023/05/25 02:06:01;;;;;;;11.60;4.37;;;;;;;10.15;100.00;102950.66;5088696;28;20823;-68
2023/05/25 02:08:27;;;;;;;7.20;3.90;;;;;;;10.08;100.00;102965.63;5088430;28;20944;-68
2023/05/25 02:10:52;;;;;;;8.47;3.73;;;;;;;9.98;100.00;102956.75;5086204;28;20198;-68
2023/05/25 02:13:18;;;;;;;10.23;4.23;;;;;;;9.86;100.00;102948.00;5091369;28;20285;-68
2023/05/25 02:15:43;;;;;;;7.10;3.93;;;;;;;10.11;100.00;102964.47;5084325;28;20674;-68
2023/05/25 02:18:09;;;;;;;9.73;4.30;;;;;;;10.22;100.00;102991.16;5088674;28;20199;-68
2023/05/25 02:20:35;;;;;;;7.70;3.80;;;;;;;10.15;100.00;102952.47;5086731;28;20574;-68
2023/05/25 02:23:01;;;;;;;10.33;4.10;;;;;;;10.13;100.00;102970.56;5093210;28;20452;-68
2023/05/25 02:25:26;;;;;;;7.83;3.77;;;;;;;10.17;100.00;102983.50;5088962;28;20443;-68
2023/05/25 02:27:53;;;;;;;7.57;4.00;;;;;;;9.57;100.00;102885.53;5092906;28;20232;-68
2023/05/25 02:30:18;;;;;;;7.50;4.10;;;;;;;9.22;100.00;102802.09;5091750;28;20214;-68
2023/05/25 02:32:44;;;;;;;11.30;3.87;;;;;;;10.09;100.00;102948.53;5085056;28;20467;-68
2023/05/25 02:35:09;;;;;;;6.80;3.40;;;;;;;10.05;100.00;102951.66;5091324;28;20188;-68
2023/05/25 02:37:35;;;;;;;6.73;3.70;;;;;;;9.89;100.00;102917.38;5082626;28;20210;-68
2023/05/25 02:40:00;;;;;;;7.93;3.40;;;;;;;9.94;100.00;102956.16;5084267;28;20270;-68
2023/05/25 02:42:25;;;;;;;7.77;4.40;;;;;;;9.59;100.00;102907.69;5088980;28;20194;-68
2023/05/25 02:44:51;;;;;;;8.13;3.43;;;;;;;9.89;100.00;102957.59;5077835;28;20652;-69
2023/05/25 02:47:17;;;;;;;10.53;4.20;;;;;;;9.81;100.00;102928.00;5087829;28;20189;-69
2023/05/25 02:49:44;;;;;;;7.80;3.63;;;;;;;10.07;100.00;102960.41;5091305;28;20237;-69
2023/05/25 02:52:09;;;;;;;8.53;4.30;;;;;;;9.54;100.00;102893.88;5093964;28;20488;-68
2023/05/25 02:54:35;;;;;;;8.50;3.50;;;;;;;10.13;100.00;102984.81;5092484;28;21043;-68
2023/05/25 02:57:02;;;;;;;8.47;3.67;;;;;;;9.83;100.00;102942.06;5093076;28;20260;-69
2023/05/25 02:59:27;;;;;;;9.67;4.20;;;;;;;9.47;100.00;102901.63;5099113;28;20189;-68
2023/05/25 03:01:53;;;;;;;9.30;4.37;;;;;;;9.97;100.00;102981.84;5094244;28;20515;-68
2023/05/25 03:04:19;;;;;;;8.57;3.73;;;;;;;9.94;100.00;102980.28;5094839;28;20210;-68
2023/05/25 03:06:44;;;;;;;8.33;4.40;;;;;;;9.95;100.00;102971.28;5090111;28;20193;-68
2023/05/25 03:09:10;;;;;;;7.53;3.73;;;;;;;9.46;100.00;102900.78;5089788;28;20216;-68
2023/05/25 03:11:35;;;;;;;9.63;3.97;;;;;;;9.27;100.00;102882.88;5095000;28;20644;-68
2023/05/25 03:14:01;;;;;;;7.90;3.97;;;;;;;9.27;100.00;102890.91;5090692;28;20513;-68
2023/05/25 03:16:26;;;;;;;7.10;3.80;;;;;;;9.46;100.00;102921.38;5097818;28;20197;-68
2023/05/25 03:18:52;;;;;;;9.10;3.87;;;;;;;9.87;100.00;103006.00;5081557;28;20557;-68
2023/05/25 03:21:17;;;;;;;7.60;3.80;;;;;;;9.92;100.00;103013.59;5099034;28;20182;-68
2023/05/25 03:23:43;;;;;;;8.53;4.30;;;;;;;9.50;100.00;102973.69;5101533;28;20687;-68
2023/05/25 03:26:08;;;;;;;9.50;4.00;;;;;;;9.85;100.00;103028.56;5099254;28;20196;-68
2023/05/25 03:28:34;;;;;;;5.93;3.80;;;;;;;10.00;100.00;103037.88;5101050;28;20216;-69
2023/05/25 03:31:00;;;;;;;10.00;4.80;;;;;;;10.03;100.00;103036.75;5101802;28;20632;-68
2023/05/25 03:33:25;;;;;;;6.93;3.63;;;;;;;10.02;100.00;103024.34;5097339;28;20221;-68
2023/05/25 03:35:51;;;;;;;7.20;3.00;;;;;;;9.48;100.00;102960.41;5101429;28;20432;-69
2023/05/25 03:38:16;;;;;;;10.10;4.10;;;;;;;10.01;100.00;103070.88;5101246;28;20189;-69
2023/05/25 03:40:42;;;;;;;6.73;3.37;;;;;;;10.04;100.00;103092.91;5098590;28;20182;-68
2023/05/25 03:43:07;;;;;;;6.57;3.30;;;;;;;9.91;100.00;103065.53;5099717;28;20221;-68
2023/05/25 03:45:33;;;;;;;7.13;3.47;;;;;;;10.19;100.00;103096.88;5100572;28;20251;-68
2023/05/25 03:47:58;;;;;;;7.73;4.20;;;;;;;9.99;100.00;103046.91;5100410;28;20602;-68
2023/05/25 03:50:23;;;;;;;7.37;4.40;;;;;;;9.85;100.00;103025.88;5096088;28;20205;-70
2023/05/25 03:52:49;;;;;;;8.33;4.10;;;;;;;9.64;100.00;103076.94;5090187;28;20217;-68
2023/05/25 03:55:15;;;;;;;10.00;4.27;;;;;;;9.68;100.00;103062.25;5092822;28;20181;-69
2023/05/25 03:57:41;;;;;;;7.50;4.00;;;;;;;9.73;100.00;103111.78;5091944;28;20182;-68
2023/05/25 04:00:08;;;;;;;10.80;3.83;;;;;;;10.20;100.00;103137.94;5084460;28;20235;-69
2023/05/25 04:02:34;;;;;;;10.90;4.77;;;;;;;10.11;100.00;103138.78;5082809;28;20487;-69
2023/05/25 04:04:59;;;;;;;7.40;4.57;;;;;;;10.30;100.00;103160.31;5082891;28;20526;-68
2023/05/25 04:07:26;;;;;;;6.20;3.60;;;;;;;10.29;100.00;103138.97;5086242;28;20777;-69
2023/05/25 04:09:52;;;;;;;6.13;3.43;;;;;;;10.16;100.00;103137.38;5084728;28;20252;-68
2023/05/25 04:12:17;;;;;;;12.07;4.47;;;;;;;10.25;100.00;103134.84;5086686;28;20444;-69
2023/05/25 04:14:43;;;;;;;11.10;4.00;;;;;;;10.32;100.00;103133.31;5091814;28;20913;-69
2023/05/25 04:17:08;;;;;;;15.13;4.53;;;;;;;10.40;100.00;103149.56;5087618;28;20186;-68
2023/05/25 04:19:34;;;;;;;9.17;4.17;;;;;;;10.24;100.00;103130.44;5095378;28;20182;-68
2023/05/25 04:22:00;;;;;;;9.60;4.13;;;;;;;10.21;100.00;103115.47;5073670;28;20275;-69
2023/05/25 04:24:26;;;;;;;8.77;4.20;;;;;;;10.38;100.00;103149.69;5075636;28;20492;-68
2023/05/25 04:26:52;;;;;;;8.47;3.63;;;;;;;10.34;100.00;103158.19;5091368;28;21892;-68
2023/05/25 04:29:17;;;;;;;6.60;3.37;;;;;;;10.36;100.00;103146.31;5091146;28;21030;-68
2023/05/25 04:31:44;;;;;;;7.20;3.40;;;;;;;10.34;100.00;103158.19;5092287;28;20192;-68
2023/05/25 04:34:10;;;;;;;12.83;4.67;;;;;;;10.52;100.00;103186.00;5092913;28;20220;-68
2023/05/25 04:36:37;;;;;;;9.03;4.67;;;;;;;10.56;100.00;103189.25;5090618;28;20443;-69
2023/05/25 04:39:03;;;;;;;8.20;4.27;;;;;;;10.54;100.00;103202.81;5072219;28;20255;-68
2023/05/25 04:41:29;;;;;;;12.60;4.27;;;;;;;10.08;100.00;103126.50;5084637;28;20527;-69
2023/05/25 04:43:54;;;;;;;14.00;4.73;;;;;;;10.19;100.00;103155.03;5084730;28;20508;-69
2023/05/25 04:46:20;;;;;;;10.57;4.17;;;;;;;10.71;100.00;103235.31;5077593;28;20556;-68
2023/05/25 04:48:45;;;;;;;7.17;3.90;;;;;;;10.60;100.00;103247.88;5063315;28;20222;-68
2023/05/25 04:51:11;;;;;;;8.67;3.33;;;;;;;10.68;100.00;103262.44;5085929;28;20643;-69
2023/05/25 04:53:36;;;;;;;9.63;3.47;;;;;;;10.83;100.00;103271.75;5086320;28;20208;-69
2023/05/25 04:56:02;;;;;;;11.43;4.03;;;;;;;10.14;100.00;103174.22;5095023;28;20186;-69
2023/05/25 04:58:28;;;;;;;7.73;3.50;;;;;;;8.99;100.00;102955.94;5105746;22;20229;-74
2023/05/25 05:00:54;;;;;;;8.93;3.43;;;;;;;10.30;100.00;103162.09;5093041;28;20488;-74
2023/05/25 05:03:20;;;;;;;6.60;3.57;;;;;;;9.57;100.00;103014.13;5071517;28;20258;-74
2023/05/25 05:05:45;;;;;;;9.87;4.07;;;;;;;9.43;100.00;103034.13;5089335;28;20856;-74
2023/05/25 05:08:11;;;;;;;9.03;3.03;;;;;;;9.96;100.00;103151.75;5066541;28;20215;-75
2023/05/25 05:10:37;;;;;;;5.60;2.93;;;;;;;8.98;100.00;102959.63;5074601;28;20658;-74
2023/05/25 05:13:02;;;;;;;9.53;3.23;;;;;;;9.30;100.00;103041.59;5074306;28;20186;-74
2023/05/25 05:15:27;;;;;;;9.13;3.57;;;;;;;9.14;100.00;102978.69;5074443;28;20593;-74
2023/05/25 05:17:53;;;;;;;7.37;2.60;;;;;;;9.32;100.00;103011.00;5071418;28;20210;-74
2023/05/25 05:20:19;;;;;;;6.90;2.93;;;;;;;11.04;100.00;103250.13;5077945;28;20179;-74
2023/05/25 05:22:44;;;;;;;13.70;3.60;;;;;;;9.11;100.00;102911.16;5054374;28;20241;-74
2023/05/25 05:25:10;;;;;;;9.57;3.00;;;;;;;11.50;100.00;103308.44;5053573;28;20624;-74
2023/05/25 05:27:35;;;;;;;6.53;3.23;;;;;;;9.05;100.00;102917.91;5075310;28;20215;-74
2023/05/25 05:30:02;;;;;;;11.83;3.60;;;;;;;10.86;100.00;103167.59;5057575;28;20648;-75
2023/05/25 05:32:27;;;;;;;6.67;3.23;;;;;;;9.46;100.00;102886.56;5057274;28;20711;-74
2023/05/25 05:34:53;;;;;;;9.00;2.87;;;;;;;10.37;100.00;103056.78;5058342;28;20527;-74
2023/05/25 05:37:18;;;;;;;9.00;3.70;;;;;;;10.29;100.00;103037.03;5072993;28;20191;-74
2023/05/25 05:39:44;;;;;;;9.17;2.73;;;;;;;10.75;100.00;103094.44;5068862;28;20203;-75
2023/05/25 05:42:10;;;;;;;7.60;3.13;;;;;;;10.53;100.00;103056.22;5069230;28;20187;-74
2023/05/25 05:44:35;;;;;;;9.97;3.87;;;;;;;9.77;100.00;102905.13;5073554;28;20201;-74
2023/05/25 05:47:02;;;;;;;11.33;4.13;;;;;;;11.07;100.00;103113.69;5072428;28;20289;-73
2023/05/25 05:49:31;;;;;;;12.27;3.83;;;;;;;10.89;100.00;103028.69;5070648;28;20214;-73
2023/05/25 05:51:57;;;;;;;10.33;3.43;;;;;;;11.49;100.00;103121.31;5071020;28;20445;-74
2023/05/25 05:54:23;;;;;;;12.40;4.50;;;;;;;11.28;100.00;103093.81;5057359;28;20477;-73
2023/05/25 05:56:49;;;;;;;12.57;3.53;;;;;;;11.64;100.00;103124.34;5055814;28;20483;-73
2023/05/25 05:59:14;;;;;;;9.20;3.60;;;;;;;11.69;100.00;103127.44;5070425;28;20207;-73
2023/05/25 06:01:41;;;;;;;12.37;3.70;;;;;;;11.62;100.00;103137.09;5071489;28;20452;-74
2023/05/25 06:04:07;;;;;;;16.23;4.27;;;;;;;11.92;100.00;103162.00;5072654;28;20269;-74
2023/05/25 06:06:33;;;;;;;17.03;4.50;;;;;;;11.26;100.00;103036.72;5072110;28;20577;-73
2023/05/25 06:09:02;;;;;;;10.50;3.90;;;;;;;11.59;100.00;103090.84;5070274;28;20293;-73
2023/05/25 06:11:27;;;;;;;13.33;4.00;;;;;;;11.06;100.00;103007.28;5074128;28;20914;-73
2023/05/25 06:13:53;;;;;;;12.90;4.00;;;;;;;10.85;100.00;102953.81;5052813;28;20468;-74
2023/05/25 06:16:18;;;;;;;22.33;5.50;;;;;;;12.01;100.00;103111.84;5072736;28;20194;-74
2023/05/25 06:18:45;;;;;;;19.17;4.90;;;;;;;11.90;100.00;103131.72;5071358;28;20199;-73
2023/05/25 06:21:10;;;;;;;13.63;3.87;;;;;;;11.26;100.00;103017.91;5073748;28;20194;-72
2023/05/25 06:23:35;;;;;;;13.57;4.20;;;;;;;11.38;100.00;103073.13;5074487;28;20440;-74
2023/05/25 06:26:05;;;;;;;14.93;4.60;;;;;;;11.32;100.00;103038.81;5078330;28;20187;-74
2023/05/25 06:28:30;;;;;;;16.83;4.47;;;;;;;11.26;100.00;103009.88;5077055;28;20263;-73
2023/05/25 06:30:56;;;;;;;14.50;4.80;;;;;;;11.08;100.00;102942.69;5078746;28;20451;-73
2023/05/25 06:33:22;;;;;;;16.13;4.10;;;;;;;11.43;100.00;103002.84;5077422;28;20222;-74
2023/05/25 06:35:48;;;;;;;16.20;4.27;;;;;;;11.77;100.00;103016.44;5076488;28;20186;-73
2023/05/25 06:38:14;;;;;;;16.63;4.80;;;;;;;9.88;100.00;102695.91;5077371;28;20455;-73
2023/05/25 06:40:39;;;;;;;17.73;4.70;;;;;;;10.79;100.00;102847.03;5062320;28;20198;-74
2023/05/25 06:43:05;;;;;;;16.47;4.20;;;;;;;12.34;100.00;103080.69;5071446;28;20436;-74
2023/05/25 06:45:30;;;;;;;16.50;4.97;;;;;;;11.60;100.00;102940.19;5058322;28;20187;-74
2023/05/25 06:47:56;;;;;;;18.90;4.67;;;;;;;11.36;100.00;102892.41;5073790;28;20206;-73
2023/05/25 06:50:22;;;;;;;17.60;4.83;;;;;;;11.16;100.00;102858.66;5057255;28;20219;-74
2023/05/25 06:52:47;;;;;;;16.53;4.50;;;;;;;11.35;100.00;102861.19;5073847;28;20797;-73
2023/05/25 06:55:13;;;;;;;11.43;4.07;;;;;;;10.72;100.00;102738.59;5077574;28;20662;-74
2023/05/25 06:57:39;;;;;;;19.10;4.73;;;;;;;12.66;100.00;103055.84;5076324;28;20247;-74
2023/05/25 07:00:06;;;;;;;14.90;4.73;;;;;;;10.92;100.00;102763.44;5057276;28;20215;-74
2023/05/25 07:02:33;;;;;;;10.17;3.83;;;;;;;11.83;100.00;102867.09;5056692;28;20444;-73
2023/05/25 07:04:59;;;;;;;12.37;5.00;;;;;;;11.21;100.00;102768.53;5069964;28;20448;-74
2023/05/25 07:07:25;;;;;;;14.17;4.53;;;;;;;11.50;100.00;102802.34;5058379;28;20898;-74
2023/05/25 07:09:50;;;;;;;15.03;4.20;;;;;;;10.99;100.00;102705.44;5071340;28;20522;-74
2023/05/25 07:12:16;;;;;;;13.30;4.50;;;;;;;11.81;100.00;102835.00;5072678;28;20221;-73
2023/05/25 07:14:41;;;;;;;12.37;4.17;;;;;;;11.65;100.00;102800.75;5075189;28;20271;-74
2023/05/25 07:17:07;;;;;;;16.20;5.20;;;;;;;12.96;100.00;102989.00;5077881;28;20194;-73
2023/05/25 07:19:32;;;;;;;18.50;3.47;;;;;;;13.06;100.00;103022.91;5055642;28;20813;-74
2023/05/25 07:21:58;;;;;;;11.30;3.97;;;;;;;12.50;100.00;102938.16;5078176;28;20182;-73
2023/05/25 07:24:23;;;;;;;11.80;4.60;;;;;;;12.12;100.00;102899.94;5054746;28;20653;-74
2023/05/25 07:26:48;;;;;;;18.20;5.40;;;;;;;12.10;100.00;102910.00;5070047;28;20221;-74
2023/05/25 07:29:14;;;;;;;12.37;4.00;;;;;;;12.09;100.00;102913.72;5072236;28;20289;-73
2023/05/25 07:31:39;;;;;;;10.47;4.43;;;;;;;12.53;100.00;103002.44;5075460;28;20183;-73
2023/05/25 07:34:05;;;;;;;17.90;5.10;;;;;;;12.32;100.00;102959.72;5072665;28;20184;-74
2023/05/25 07:36:31;;;;;;;12.63;4.20;;;;;;;12.57;100.00;103043.34;5076174;28;20194;-74
2023/05/25 07:38:57;;;;;;;11.43;3.83;;;;;;;11.77;100.00;102890.06;5057535;28;20213;-74
2023/05/25 07:41:22;;;;;;;14.23;4.70;;;;;;;12.81;100.00;103051.56;5073831;28;20830;-74
2023/05/25 07:43:48;;;;;;;18.13;4.80;;;;;;;12.78;100.00;103019.56;5075578;28;20208;-74
2023/05/25 07:46:13;;;;;;;13.23;4.37;;;;;;;13.07;100.00;103046.13;5056498;28;20194;-74
2023/05/25 07:48:39;;;;;;;20.43;4.77;;;;;;;12.70;100.00;102954.06;5074705;28;20627;-74
2023/05/25 07:51:04;;;;;;;17.00;5.47;;;;;;;13.26;100.00;103042.38;5075817;28;20656;-74
2023/05/25 07:53:30;;;;;;;14.87;4.40;;;;;;;13.25;100.00;103012.84;5069465;28;20186;-74
2023/05/25 07:55:55;;;;;;;14.63;4.70;;;;;;;12.82;100.00;102939.31;5074510;28;20186;-74
2023/05/25 07:58:21;;;;;;;19.00;4.70;;;;;;;13.35;100.00;103037.88;5072445;28;20277;-74
2023/05/25 08:00:48;;;;;;;17.80;5.10;;;;;;;12.88;100.00;102990.69;5058108;28;20183;-74
2023/05/25 08:03:14;;;;;;;12.93;4.50;;;;;;;11.82;100.00;102823.22;5073969;28;20194;-75
2023/05/25 08:05:39;;;;;;;16.57;4.07;;;;;;;12.51;100.00;102944.38;5074738;28;20846;-73
2023/05/25 08:08:05;;;;;;;11.43;4.13;;;;;;;13.08;100.00;103014.69;5073426;28;20206;-74
2023/05/25 08:10:31;;;;;;;12.50;4.33;;;;;;;12.87;100.00;102943.22;5070810;28;20218;-74
2023/05/25 08:12:57;;;;;;;17.23;4.00;;;;;;;13.18;100.00;102979.50;5054996;28;20179;-74
2023/05/25 08:15:25;;;;;;;15.00;4.40;;;;;;;12.76;100.00;102935.41;5073896;28;20444;-75
2023/05/25 08:17:51;;;;;;;14.13;3.80;;;;;;;13.23;100.00;102996.03;5073737;28;20441;-74
2023/05/25 08:20:16;;;;;;;17.50;4.90;;;;;;;12.34;100.00;102885.06;5055387;28;20439;-75
2023/05/25 08:22:45;;;;;;;15.30;4.83;;;;;;;12.59;100.00;102904.06;5069799;28;20558;-74
2023/05/25 08:25:10;;;;;;;15.90;5.00;;;;;;;13.08;100.00;103001.19;5076715;28;20252;-74
2023/05/25 08:27:36;;;;;;;11.80;4.30;;;;;;;13.10;100.00;102991.09;5076518;28;20440;-74
2023/05/25 08:30:04;;;;;;;14.50;4.10;;;;;;;12.87;100.00;102969.28;5072299;28;20206;-75
2023/05/25 08:32:30;;;;;;;18.57;5.00;;;;;;;12.16;100.00;102849.34;5076165;28;21002;-74
2023/05/25 08:34:55;;;;;;;14.13;4.90;;;;;;;12.37;100.00;102881.22;5074892;28;20451;-74
2023/05/25 08:37:22;;;;;;;15.63;4.40;;;;;;;12.84;100.00;102942.66;5073139;28;20328;-73
2023/05/25 08:39:47;;;;;;;15.97;4.20;;;;;;;12.71;100.00;102896.53;5053602;28;20677;-73
2023/05/25 08:42:13;;;;;;;10.80;4.13;;;;;;;12.71;100.00;102897.34;5072668;28;20529;-74
2023/05/25 08:44:38;;;;;;;9.03;3.60;;;;;;;12.83;100.00;102871.81;5072464;28;20186;-74
2023/05/25 08:47:06;;;;;;;12.23;3.57;;;;;;;12.99;100.00;102862.94;5072220;28;20759;-73
2023/05/25 08:49:36;;;;;;;17.93;5.10;;;;;;;13.72;100.00;103007.78;5075945;28;20211;-74
2023/05/25 08:52:01;;;;;;;14.03;5.10;;;;;;;13.01;100.00;102917.47;5070869;28;20445;-73
2023/05/25 08:54:36;;;;;;;22.13;5.60;;;;;;;13.30;100.00;103014.09;5074010;28;20811;-74
2023/05/25 08:57:19;;;;;;;14.70;4.87;;;;;;;12.61;100.00;102921.72;5076729;28;20189;-73
2023/05/25 09:00:09;;;;;;;13.10;4.60;;;;;;;12.82;100.00;102939.31;5070858;28;20999;-74
2023/05/25 09:02:43;;;;;;;11.37;3.80;;;;;;;12.70;100.00;102944.16;5074128;28;20432;-74
2023/05/25 09:05:08;;;;;;;16.33;3.90;;;;;;;12.59;100.00;102920.19;5055846;28;20861;-73
2023/05/25 09:07:34;;;;;;;11.93;4.30;;;;;;;12.75;100.00;102952.56;5071108;28;20536;-73
2023/05/25 09:10:01;;;;;;;11.73;4.20;;;;;;;13.53;100.00;103008.91;5073136;28;20202;-74
2023/05/25 09:12:29;;;;;;;12.33;3.97;;;;;;;12.72;100.00;102871.28;5073199;28;20528;-73
2023/05/25 09:14:54;;;;;;;9.17;3.80;;;;;;;12.69;100.00;102872.44;5073117;28;20436;-73
2023/05/25 09:17:20;;;;;;;13.03;4.27;;;;;;;12.58;100.00;102897.81;5072769;28;20440;-73
2023/05/25 09:19:45;;;;;;;12.47;4.83;;;;;;;12.18;100.00;102829.34;5051674;28;20699;-73
2023/05/25 09:22:12;;;;;;;15.83;3.70;;;;;;;13.20;100.00;102978.34;5055241;28;20200;-74
2023/05/25 09:24:40;;;;;;;16.20;4.50;;;;;;;13.02;100.00;102943.44;5070323;28;20447;-73
2023/05/25 09:27:09;;;;;;;16.83;4.13;;;;;;;13.47;100.00;103020.38;5072635;28;20252;-73
2023/05/25 09:29:35;;;;;;;11.97;3.77;;;;;;;12.75;100.00;102916.72;5053512;28;21008;-73
2023/05/25 09:32:04;;;;;;;11.73;3.77;;;;;;;13.53;100.00;103011.63;5073747;28;20444;-73
2023/05/25 09:34:33;;;;;;;12.50;3.80;;;;;;;13.23;100.00;102909.78;5069735;28;20437;-74
2023/05/25 09:37:02;;;;;;;15.57;4.60;;;;;;;13.98;100.00;103002.25;5065939;28;20522;-73
2023/05/25 09:39:29;;;;;;;11.13;3.70;;;;;;;13.63;100.00;102986.38;5066832;28;20452;-73
2023/05/25 09:41:56;;;;;;;14.67;4.23;;;;;;;13.56;100.00;103008.59;5063498;28;21109;-73
2023/05/25 09:44:21;;;;;;;11.47;4.13;;;;;;;13.40;100.00;102957.34;5077058;28;20791;-74
2023/05/25 09:46:47;;;;;;;13.77;4.40;;;;;;;13.81;100.00;103015.91;5058912;28;20452;-74
2023/05/25 09:49:13;;;;;;;12.50;3.97;;;;;;;13.76;100.00;102976.75;5077420;28;20879;-74
2023/05/25 09:51:39;;;;;;;11.33;4.23;;;;;;;13.69;100.00;102975.75;5060445;28;20182;-73
2023/05/25 09:54:08;;;;;;;13.63;4.80;;;;;;;14.04;100.00;103016.91;5074465;28;20217;-73
2023/05/25 09:56:34;;;;;;;15.73;4.30;;;;;;;13.46;100.00;102904.63;5059968;28;20441;-74
2023/05/25 09:59:00;;;;;;;15.67;5.07;;;;;;;13.91;100.00;103016.56;5056072;28;20460;-75
2023/05/25 10:01:26;;;;;;;12.73;4.23;;;;;;;12.53;100.00;102821.25;5058307;28;20197;-75
2023/05/25 10:03:55;;;;;;;10.10;3.80;;;;;;;13.16;100.00;102882.66;5075974;28;20441;-73
2023/05/25 10:06:22;;;;;;;15.03;3.90;;;;;;;11.40;100.00;102611.69;5073366;28;20437;-74
2023/05/25 10:08:48;;;;;;;15.30;4.03;;;;;;;13.31;100.00;102929.53;5071666;28;20453;-74
2023/05/25 10:11:14;;;;;;;14.87;5.57;;;;;;;13.24;100.00;102950.03;5074798;28;20975;-74
2023/05/25 10:13:44;;;;;;;12.87;4.23;;;;;;;13.55;100.00;103000.69;5045500;28;20921;-74
2023/05/25 10:16:16;;;;;;;14.07;5.00;;;;;;;12.95;100.00;102904.66;5078098;28;20501;-74
2023/05/25 10:18:47;;;;;;;12.87;4.90;;;;;;;13.25;100.00;102880.81;5053934;28;20488;-74
2023/05/25 10:21:15;;;;;;;9.07;3.60;;;;;;;13.91;100.00;102968.84;5067514;28;20443;-73
2023/05/25 10:23:46;;;;;;;12.17;4.90;;;;;;;13.07;100.00;102845.94;5068785;28;20440;-73
2023/05/25 10:26:17;;;;;;;13.77;4.20;;;;;;;13.99;100.00;103009.31;5076183;28;20449;-74
2023/05/25 10:28:43;;;;;;;9.93;4.07;;;;;;;14.01;100.00;103003.75;5074437;28;21048;-73
2023/05/25 10:31:09;;;;;;;14.07;3.83;;;;;;;13.87;100.00;102953.19;5075866;28;20516;-74
2023/05/25 10:33:36;;;;;;;10.60;3.80;;;;;;;14.27;100.00;103024.34;5076334;28;20475;-73
2023/05/25 10:36:03;;;;;;;16.33;4.60;;;;;;;14.39;100.00;103021.09;5073452;28;20179;-74
2023/05/25 10:38:30;;;;;;;11.50;3.83;;;;;;;14.44;100.00;103034.09;5069953;28;20463;-73
2023/05/25 10:40:58;;;;;;;10.03;3.60;;;;;;;14.21;100.00;102980.81;5076027;28;20510;-73
2023/05/25 10:43:26;;;;;;;12.73;4.10;;;;;;;14.65;100.00;102998.47;5074160;28;20454;-73
2023/05/25 10:45:52;;;;;;;10.83;3.40;;;;;;;14.91;100.00;103020.66;5072025;28;20445;-73
2023/05/25 10:48:18;;;;;;;10.53;3.53;;;;;;;15.24;100.00;103008.84;5075118;28;20522;-73
2023/05/25 10:50:49;;;;;;;10.53;3.20;;;;;;;14.29;100.00;102850.38;5056485;28;20503;-74
2023/05/25 10:53:15;;;;;;;12.33;3.80;;;;;;;14.51;100.00;102943.28;5061125;28;20640;-74
2023/05/25 10:55:52;;;;;;;13.30;4.73;;;;;;;14.99;100.00;103027.06;5077841;28;20505;-74
2023/05/25 10:58:20;;;;;;;17.40;5.10;;;;;;;14.74;100.00;103026.28;5071602;28;20229;-74
2023/05/25 11:01:05;;;;;;;11.40;4.07;;;;;;;14.64;100.00;102972.47;5072353;28;20535;-74
2023/05/25 11:03:42;;;;;;;13.73;4.40;;;;;;;15.19;100.00;103017.53;5058249;28;20487;-74
2023/05/25 11:06:10;;;;;;;14.23;4.57;;;;;;;14.99;100.00;102989.22;5074757;28;20451;-74
2023/05/25 11:08:55;;;;;;;9.93;3.80;;;;;;;15.00;100.00;103001.72;5079144;22;20505;-68
2023/05/25 11:11:21;;;;;;;17.47;4.43;;;;;;;14.97;100.00;103026.41;5069134;28;20449;-70
2023/05/25 11:13:48;;;;;;;11.97;4.83;;;;;;;14.65;100.00;102987.66;5063474;28;22064;-70